Time;durP1;ratioP1;P1;durP2;ratioP2;P2;SDS_P1;SDS_P2;PMS_P1;PMS_P2;Temp;Humidity;BMP_temperature;BMP_pressure;BME280_temperature;BME280_humidity;BME280_pressure;Samples;Min_cycle;Max_cycle;Signal;HPM_P1;HPM_P2
2022/07/07 00:01:58;;;;;;;2.30;1.53;;;16.10;99.90;;;;;;5110624;28;20211;-65
2022/07/07 00:04:24;;;;;;;1.93;1.20;;;16.10;99.90;;;;;;5097584;28;20223;-64
2022/07/07 00:06:51;;;;;;;2.33;1.40;;;16.10;99.90;;;;;;5110706;28;20200;-64
2022/07/07 00:09:18;;;;;;;4.27;1.60;;;16.10;99.90;;;;;;5109702;28;20230;-64
2022/07/07 00:11:46;;;;;;;1.53;1.40;;;16.00;99.90;;;;;;5108803;28;20196;-65
2022/07/07 00:14:13;;;;;;;1.53;1.10;;;16.00;99.90;;;;;;5111083;28;20231;-64
2022/07/07 00:16:39;;;;;;;1.10;1.00;;;16.00;99.90;;;;;;5111354;28;20204;-65
2022/07/07 00:19:06;;;;;;;2.50;1.30;;;15.90;99.90;;;;;;5110084;28;20211;-65
2022/07/07 00:21:33;;;;;;;2.20;1.30;;;16.00;99.90;;;;;;5110389;28;20210;-65
2022/07/07 00:24:00;;;;;;;2.53;1.13;;;16.00;99.90;;;;;;5111186;28;20539;-65
2022/07/07 00:26:30;;;;;;;2.10;1.10;;;16.00;99.90;;;;;;5110532;28;20203;-65
2022/07/07 00:28:58;;;;;;;1.93;1.10;;;16.00;99.90;;;;;;5108820;28;20257;-64
2022/07/07 00:31:25;;;;;;;1.10;1.00;;;16.00;99.90;;;;;;5110105;28;20207;-64
2022/07/07 00:33:52;;;;;;;1.63;1.07;;;16.00;99.90;;;;;;5109716;28;20227;-64
2022/07/07 00:36:19;;;;;;;2.53;1.20;;;16.00;99.90;;;;;;5111209;28;20585;-64
2022/07/07 00:38:45;;;;;;;2.97;1.20;;;16.00;99.90;;;;;;5111036;28;20572;-64
2022/07/07 00:41:12;;;;;;;1.80;1.03;;;16.00;99.90;;;;;;5110627;28;20200;-65
2022/07/07 00:43:41;;;;;;;1.23;1.00;;;16.00;99.90;;;;;;5108034;28;20195;-65
2022/07/07 00:46:09;;;;;;;1.10;1.00;;;16.10;99.90;;;;;;5110507;28;20207;-65
2022/07/07 00:48:38;;;;;;;2.47;1.37;;;16.10;99.90;;;;;;5108516;28;21010;-66
2022/07/07 00:51:06;;;;;;;1.50;0.90;;;16.00;99.90;;;;;;5111153;28;20204;-64
2022/07/07 00:53:33;;;;;;;2.30;0.90;;;16.00;99.90;;;;;;5110035;28;20695;-65
2022/07/07 00:56:00;;;;;;;1.63;1.03;;;16.00;99.90;;;;;;5110534;28;20200;-65
2022/07/07 00:58:26;;;;;;;2.30;0.83;;;16.00;99.90;;;;;;5110359;28;20212;-64
2022/07/07 01:00:53;;;;;;;1.33;0.73;;;16.00;99.90;;;;;;5105131;28;20208;-65
2022/07/07 01:03:21;;;;;;;4.90;0.87;;;16.00;99.90;;;;;;5099997;28;20192;-65
2022/07/07 01:05:49;;;;;;;1.10;0.93;;;16.00;99.90;;;;;;5110639;28;20212;-65
2022/07/07 01:08:16;;;;;;;1.20;0.93;;;15.90;99.90;;;;;;5110267;28;20726;-65
2022/07/07 01:10:44;;;;;;;1.10;0.90;;;16.00;99.90;;;;;;5109970;28;20231;-65
2022/07/07 01:13:11;;;;;;;0.87;0.87;;;16.00;99.90;;;;;;5109854;28;20223;-64
2022/07/07 01:15:38;;;;;;;1.80;1.20;;;15.90;99.90;;;;;;5108990;28;20207;-65
2022/07/07 01:18:06;;;;;;;1.10;0.90;;;15.90;99.90;;;;;;5109711;28;20212;-65
2022/07/07 01:20:35;;;;;;;0.70;0.70;;;15.90;99.90;;;;;;5109907;28;20204;-65
2022/07/07 01:23:03;;;;;;;3.50;1.00;;;15.90;99.90;;;;;;5109703;28;20206;-65
2022/07/07 01:25:30;;;;;;;0.80;0.80;;;15.90;99.90;;;;;;5110394;28;20204;-65
2022/07/07 01:27:57;;;;;;;0.80;0.70;;;15.90;99.90;;;;;;5109398;28;20540;-65
2022/07/07 01:30:24;;;;;;;2.83;0.90;;;15.90;99.90;;;;;;5096525;28;20204;-65
2022/07/07 01:32:51;;;;;;;2.50;0.83;;;15.90;99.90;;;;;;5109282;28;20655;-64
2022/07/07 01:35:18;;;;;;;1.93;0.80;;;15.90;99.90;;;;;;5109151;28;20680;-64
2022/07/07 01:37:45;;;;;;;0.77;0.70;;;15.90;99.90;;;;;;5109610;28;20567;-64
2022/07/07 01:40:13;;;;;;;0.87;0.87;;;15.90;99.90;;;;;;5109898;28;20644;-66
2022/07/07 01:42:39;;;;;;;1.07;0.97;;;15.80;99.90;;;;;;5110747;28;20211;-65
2022/07/07 01:45:07;;;;;;;1.10;1.00;;;15.90;99.90;;;;;;5113691;28;20671;-65
2022/07/07 01:47:34;;;;;;;1.70;1.10;;;15.90;99.90;;;;;;5112672;28;20250;-64
2022/07/07 01:50:01;;;;;;;2.07;1.10;;;15.80;99.90;;;;;;5113177;28;20223;-65
2022/07/07 01:52:28;;;;;;;1.70;0.90;;;15.90;99.90;;;;;;5112003;28;20667;-65
2022/07/07 01:54:54;;;;;;;1.80;1.43;;;15.90;99.90;;;;;;5112883;28;20220;-64
2022/07/07 01:57:22;;;;;;;2.07;0.80;;;15.90;99.90;;;;;;5113541;28;20210;-64
2022/07/07 01:59:49;;;;;;;2.20;0.70;;;15.80;99.90;;;;;;5113459;28;20210;-65
2022/07/07 02:02:16;;;;;;;2.43;1.10;;;15.80;99.90;;;;;;5112341;28;20211;-66
2022/07/07 02:04:43;;;;;;;2.50;1.00;;;15.80;99.90;;;;;;5112636;28;20204;-65
2022/07/07 02:07:10;;;;;;;1.30;0.80;;;15.80;99.90;;;;;;5112601;28;20215;-65
2022/07/07 02:09:37;;;;;;;2.00;0.93;;;15.70;99.90;;;;;;5112919;28;20841;-65
2022/07/07 02:12:04;;;;;;;2.83;1.30;;;15.70;99.90;;;;;;5113446;28;20200;-63
2022/07/07 02:14:32;;;;;;;1.70;0.90;;;15.70;99.90;;;;;;5112148;28;20223;-63
2022/07/07 02:16:59;;;;;;;1.63;1.10;;;15.70;99.90;;;;;;5104976;28;20207;-65
2022/07/07 02:19:26;;;;;;;0.80;0.60;;;15.80;99.90;;;;;;5111507;28;20203;-64
2022/07/07 02:21:53;;;;;;;1.33;0.93;;;15.70;99.90;;;;;;5111939;28;20239;-64
2022/07/07 02:24:20;;;;;;;3.00;0.80;;;15.70;99.90;;;;;;5111868;28;20203;-64
2022/07/07 02:26:47;;;;;;;0.80;0.80;;;15.80;99.90;;;;;;5112996;28;20211;-66
2022/07/07 02:29:14;;;;;;;1.37;0.93;;;15.80;99.90;;;;;;5112577;28;20208;-64
2022/07/07 02:31:42;;;;;;;1.63;1.10;;;15.80;99.90;;;;;;5112701;28;20200;-66
2022/07/07 02:34:09;;;;;;;1.30;0.70;;;15.80;99.90;;;;;;5110461;28;20235;-65
2022/07/07 02:36:36;;;;;;;2.43;0.83;;;15.80;99.90;;;;;;5112160;28;20208;-65
2022/07/07 02:39:03;;;;;;;2.07;0.77;;;15.90;99.90;;;;;;5112698;28;20207;-64
2022/07/07 02:41:29;;;;;;;0.70;0.70;;;15.80;99.90;;;;;;5112949;28;20208;-64
2022/07/07 02:43:56;;;;;;;2.13;0.80;;;15.80;99.90;;;;;;5111420;28;20209;-64
2022/07/07 02:46:23;;;;;;;2.00;0.90;;;15.80;99.90;;;;;;5112687;28;20208;-64
2022/07/07 02:48:51;;;;;;;1.90;0.87;;;15.80;99.90;;;;;;5112623;28;20212;-64
2022/07/07 02:51:18;;;;;;;3.90;1.07;;;15.80;99.90;;;;;;5110099;28;20235;-65
2022/07/07 02:53:44;;;;;;;1.20;1.00;;;15.90;99.90;;;;;;5111756;28;20588;-65
2022/07/07 02:56:11;;;;;;;1.37;0.77;;;15.90;99.90;;;;;;5111443;28;20210;-65
2022/07/07 02:58:39;;;;;;;5.63;0.90;;;15.90;99.90;;;;;;5112545;28;20219;-65
2022/07/07 03:01:05;;;;;;;1.20;0.80;;;16.00;99.90;;;;;;5108049;28;20208;-64
2022/07/07 03:03:32;;;;;;;2.20;0.90;;;15.90;99.90;;;;;;5112127;28;20414;-63
2022/07/07 03:06:00;;;;;;;0.83;0.60;;;16.00;99.90;;;;;;5111359;28;20560;-64
2022/07/07 03:08:27;;;;;;;1.10;0.83;;;16.00;99.90;;;;;;5110592;28;20234;-64
2022/07/07 03:10:54;;;;;;;1.63;0.90;;;16.00;99.90;;;;;;5111274;28;20234;-64
2022/07/07 03:13:20;;;;;;;0.90;0.83;;;16.00;99.90;;;;;;5112259;28;20204;-65
2022/07/07 03:15:47;;;;;;;2.23;1.07;;;16.00;99.90;;;;;;5109751;28;20215;-64
2022/07/07 03:18:14;;;;;;;1.23;0.70;;;16.00;99.90;;;;;;5112252;28;20598;-63
2022/07/07 03:20:41;;;;;;;1.57;0.83;;;16.00;99.90;;;;;;5111150;28;20204;-64
2022/07/07 03:23:09;;;;;;;3.03;0.90;;;16.00;99.90;;;;;;5096465;28;20208;-64
2022/07/07 03:25:35;;;;;;;1.70;1.00;;;16.00;99.90;;;;;;5111088;28;20196;-65
2022/07/07 03:28:02;;;;;;;1.47;1.13;;;16.00;99.90;;;;;;5111616;28;20207;-65
2022/07/07 03:30:29;;;;;;;2.40;0.97;;;16.10;99.90;;;;;;5110743;28;20204;-65
2022/07/07 03:32:56;;;;;;;1.50;1.23;;;16.10;99.90;;;;;;5111682;28;20204;-63
2022/07/07 03:35:22;;;;;;;2.10;1.20;;;16.10;99.90;;;;;;5110642;28;20599;-64
2022/07/07 03:37:49;;;;;;;2.20;1.30;;;16.20;99.90;;;;;;5102647;28;20215;-65
2022/07/07 03:40:18;;;;;;;2.17;1.10;;;16.20;99.90;;;;;;5110756;28;20204;-64
2022/07/07 03:42:44;;;;;;;2.73;1.50;;;16.20;99.90;;;;;;5111357;28;20195;-66
2022/07/07 03:45:12;;;;;;;3.67;1.07;;;16.20;99.90;;;;;;5110608;28;20208;-64
2022/07/07 03:47:39;;;;;;;1.57;1.10;;;16.20;99.90;;;;;;5109186;28;20203;-64
2022/07/07 03:50:06;;;;;;;2.93;1.30;;;16.30;99.90;;;;;;5110996;28;20663;-65
2022/07/07 03:52:33;;;;;;;1.53;1.40;;;16.30;99.90;;;;;;5111116;28;20291;-65
2022/07/07 03:55:00;;;;;;;1.10;1.00;;;16.30;99.90;;;;;;5111051;28;20726;-65
2022/07/07 03:57:28;;;;;;;1.10;1.00;;;16.30;99.90;;;;;;5109145;28;20200;-66
2022/07/07 03:59:55;;;;;;;2.23;1.10;;;16.30;99.90;;;;;;5110278;28;20647;-65
2022/07/07 04:02:22;;;;;;;1.27;1.17;;;16.40;99.90;;;;;;5111374;28;20196;-64
2022/07/07 04:04:48;;;;;;;2.80;1.10;;;16.40;99.90;;;;;;5111031;28;20203;-64
2022/07/07 04:07:15;;;;;;;1.77;1.10;;;16.40;99.90;;;;;;5109481;28;20578;-64
2022/07/07 04:09:42;;;;;;;4.97;1.90;;;16.40;99.90;;;;;;5110891;28;20227;-65
2022/07/07 04:12:09;;;;;;;1.87;1.47;;;16.50;99.90;;;;;;5111150;28;20208;-65
2022/07/07 04:14:37;;;;;;;2.97;1.17;;;16.50;99.90;;;;;;5108581;28;20219;-65
2022/07/07 04:17:05;;;;;;;3.17;1.10;;;16.50;99.90;;;;;;5109285;28;20877;-65
2022/07/07 04:19:32;;;;;;;1.43;0.90;;;16.60;99.90;;;;;;5111218;28;20605;-65
2022/07/07 04:21:58;;;;;;;2.70;1.30;;;16.60;99.90;;;;;;5111413;28;20199;-65
2022/07/07 04:24:25;;;;;;;1.50;1.17;;;16.60;99.90;;;;;;5111164;28;20589;-65
2022/07/07 04:26:52;;;;;;;2.37;1.33;;;16.70;99.90;;;;;;5110732;28;20668;-64
2022/07/07 04:29:19;;;;;;;2.60;1.17;;;16.70;99.90;;;;;;5108510;28;20208;-65
2022/07/07 04:31:47;;;;;;;4.70;1.30;;;16.70;99.90;;;;;;5109642;28;20607;-65
2022/07/07 04:34:13;;;;;;;3.33;1.53;;;16.70;99.90;;;;;;5111012;28;20644;-64
2022/07/07 04:36:40;;;;;;;2.07;1.07;;;16.70;99.90;;;;;;5110642;28;20652;-65
2022/07/07 04:39:08;;;;;;;3.73;1.10;;;16.80;99.90;;;;;;5109587;28;20235;-64
2022/07/07 04:41:35;;;;;;;2.70;1.50;;;16.90;99.90;;;;;;5110562;28;20199;-65
2022/07/07 04:44:02;;;;;;;2.37;1.30;;;16.90;99.90;;;;;;5109519;28;20215;-65
2022/07/07 04:46:29;;;;;;;1.57;1.10;;;17.00;99.90;;;;;;5108488;28;20215;-65
2022/07/07 04:48:57;;;;;;;1.83;1.20;;;17.10;99.90;;;;;;5109384;28;20294;-65
2022/07/07 04:51:24;;;;;;;2.27;1.20;;;17.10;99.90;;;;;;5110362;28;20223;-64
2022/07/07 04:53:51;;;;;;;2.63;0.97;;;17.10;99.90;;;;;;5110620;28;20203;-65
2022/07/07 04:56:17;;;;;;;1.27;1.17;;;17.10;99.90;;;;;;5110717;28;20679;-65
2022/07/07 04:58:44;;;;;;;2.67;0.90;;;17.10;99.90;;;;;;5109518;28;20300;-66
2022/07/07 05:01:11;;;;;;;2.83;1.13;;;17.10;99.90;;;;;;5108408;28;20580;-64
2022/07/07 05:03:38;;;;;;;2.00;1.30;;;17.20;99.90;;;;;;5109121;28;20212;-64
2022/07/07 05:06:07;;;;;;;2.43;0.93;;;17.20;99.90;;;;;;5109852;28;20204;-65
2022/07/07 05:08:34;;;;;;;1.40;1.00;;;17.30;99.90;;;;;;5108530;28;20230;-65
2022/07/07 05:11:01;;;;;;;1.63;0.90;;;17.30;99.90;;;;;;5108896;28;20254;-64
2022/07/07 05:13:27;;;;;;;1.87;1.20;;;17.30;99.90;;;;;;5110096;28;20215;-64
2022/07/07 05:15:54;;;;;;;3.77;1.27;;;17.40;99.90;;;;;;5109889;28;20230;-65
2022/07/07 05:18:21;;;;;;;1.83;1.20;;;17.40;99.90;;;;;;5112574;28;20216;-65
2022/07/07 05:20:48;;;;;;;3.83;1.20;;;17.50;99.90;;;;;;5111439;28;20215;-65
2022/07/07 05:23:16;;;;;;;1.87;1.10;;;17.50;99.90;;;;;;5114122;28;20208;-64
2022/07/07 05:25:43;;;;;;;1.53;1.13;;;17.60;99.90;;;;;;5112041;28;20211;-65
2022/07/07 05:28:10;;;;;;;2.40;1.20;;;17.60;99.90;;;;;;5113107;28;20660;-64
2022/07/07 05:30:36;;;;;;;3.93;1.67;;;17.60;99.90;;;;;;5113426;28;20199;-64
2022/07/07 05:33:07;;;;;;;1.80;1.30;;;17.70;99.90;;;;;;5113849;28;20217;-67
2022/07/07 05:35:34;;;;;;;2.10;1.50;;;17.70;99.90;;;;;;5114139;28;20219;-65
2022/07/07 05:38:01;;;;;;;2.93;1.43;;;17.80;99.90;;;;;;5112318;28;20200;-65
2022/07/07 05:40:29;;;;;;;2.17;1.00;;;17.80;99.90;;;;;;5110401;28;20192;-64
2022/07/07 05:42:56;;;;;;;1.57;1.20;;;17.90;99.90;;;;;;5114424;28;20207;-66
2022/07/07 05:45:23;;;;;;;2.17;1.30;;;18.00;99.90;;;;;;5113196;28;20216;-64
2022/07/07 05:47:50;;;;;;;3.67;1.30;;;18.10;99.90;;;;;;5113654;28;20289;-64
2022/07/07 05:50:17;;;;;;;3.20;1.40;;;18.20;99.90;;;;;;5112744;28;20203;-66
2022/07/07 05:52:43;;;;;;;4.03;1.73;;;18.30;99.90;;;;;;5113271;28;20419;-65
2022/07/07 05:55:10;;;;;;;4.17;1.67;;;18.40;99.90;;;;;;5110664;28;20215;-65
2022/07/07 05:57:38;;;;;;;1.80;1.25;;;18.40;99.90;;;;;;5113538;28;20204;-65
2022/07/07 06:00:07;;;;;;;3.70;1.73;;;18.60;99.90;;;;;;5112730;28;20211;-65
2022/07/07 06:02:33;;;;;;;1.37;1.20;;;18.50;99.90;;;;;;5113350;28;20222;-65
2022/07/07 06:05:00;;;;;;;2.78;1.60;;;18.50;99.90;;;;;;5113773;28;20215;-65
2022/07/07 06:07:27;;;;;;;2.33;1.50;;;18.50;99.90;;;;;;5113768;28;20274;-65
2022/07/07 06:09:54;;;;;;;3.38;1.67;;;18.60;99.90;;;;;;5110138;28;20243;-64
2022/07/07 06:12:21;;;;;;;3.20;1.60;;;18.70;99.90;;;;;;5112797;28;20667;-65
2022/07/07 06:14:49;;;;;;;3.67;1.58;;;18.70;99.90;;;;;;5113495;28;20647;-65
2022/07/07 06:17:16;;;;;;;1.92;1.55;;;18.80;99.90;;;;;;5109325;28;20539;-65
2022/07/07 06:19:43;;;;;;;3.63;1.77;;;18.80;99.90;;;;;;5107970;28;20211;-65
2022/07/07 06:22:10;;;;;;;2.83;1.85;;;18.80;99.90;;;;;;5110647;28;20215;-66
2022/07/07 06:24:36;;;;;;;2.60;1.30;;;18.80;99.90;;;;;;5112702;28;20204;-64
2022/07/07 06:27:04;;;;;;;3.38;1.58;;;18.90;99.90;;;;;;5111346;28;20208;-65
2022/07/07 06:29:30;;;;;;;2.45;1.15;;;18.90;99.90;;;;;;5110990;28;20207;-65
2022/07/07 06:31:58;;;;;;;2.70;1.55;;;19.00;99.90;;;;;;5108627;28;20208;-64
2022/07/07 06:34:25;;;;;;;2.65;1.20;;;19.00;99.90;;;;;;5105697;27;20204;-65
2022/07/07 06:36:52;;;;;;;2.70;1.00;;;19.10;99.90;;;;;;5106619;27;20223;-65
2022/07/07 06:39:19;;;;;;;3.35;1.10;;;19.20;99.90;;;;;;5109538;28;20199;-65
2022/07/07 06:41:46;;;;;;;4.40;1.10;;;19.40;99.90;;;;;;5106655;27;20200;-65
2022/07/07 06:44:13;;;;;;;2.85;1.00;;;19.60;99.90;;;;;;5110577;28;20199;-65
2022/07/07 06:46:40;;;;;;;2.75;1.38;;;19.70;99.90;;;;;;5112231;28;20723;-64
2022/07/07 06:49:08;;;;;;;2.20;1.10;;;19.70;99.90;;;;;;5099402;28;20250;-65
2022/07/07 06:51:35;;;;;;;1.85;0.82;;;19.80;99.90;;;;;;5109162;28;20208;-65
2022/07/07 06:54:02;;;;;;;3.42;0.80;;;19.90;99.90;;;;;;5110000;28;20207;-65
2022/07/07 06:56:28;;;;;;;3.58;0.98;;;19.90;99.90;;;;;;5106431;28;20220;-65
2022/07/07 06:58:55;;;;;;;1.35;0.70;;;20.00;99.90;;;;;;5105513;28;20219;-65
2022/07/07 07:01:22;;;;;;;3.55;0.82;;;20.10;99.90;;;;;;5110475;28;20223;-65
2022/07/07 07:03:49;;;;;;;0.93;0.77;;;20.30;99.90;;;;;;5112158;28;20207;-64
2022/07/07 07:06:17;;;;;;;4.47;1.08;;;20.40;99.90;;;;;;5109857;28;20204;-64
2022/07/07 07:08:43;;;;;;;2.75;1.45;;;20.50;99.90;;;;;;5107859;28;20228;-65
2022/07/07 07:11:10;;;;;;;3.42;1.20;;;20.60;99.50;;;;;;5106551;28;20227;-65
2022/07/07 07:13:37;;;;;;;2.40;1.10;;;20.70;99.40;;;;;;5111037;28;20592;-65
2022/07/07 07:16:04;;;;;;;3.03;1.15;;;20.70;99.20;;;;;;5109596;28;20216;-66
2022/07/07 07:18:31;;;;;;;6.45;1.20;;;20.90;99.20;;;;;;5110542;28;20219;-65
2022/07/07 07:20:58;;;;;;;2.40;1.25;;;20.90;98.80;;;;;;5111115;28;20228;-65
2022/07/07 07:23:26;;;;;;;4.13;1.35;;;21.00;98.50;;;;;;5112372;28;20242;-67
2022/07/07 07:25:53;;;;;;;4.50;1.75;;;21.00;98.40;;;;;;5111666;28;20200;-65
2022/07/07 07:28:20;;;;;;;2.00;1.10;;;21.00;98.80;;;;;;5112211;28;20203;-68
2022/07/07 07:30:47;;;;;;;3.92;1.38;;;21.10;98.20;;;;;;5109344;28;20210;-65
2022/07/07 07:33:14;;;;;;;2.25;1.00;;;21.10;98.10;;;;;;5110706;28;20212;-65
2022/07/07 07:35:40;;;;;;;6.03;1.20;;;21.00;97.70;;;;;;5109152;28;20234;-65
2022/07/07 07:38:07;;;;;;;2.25;1.17;;;21.10;97.60;;;;;;5110326;28;20226;-63
2022/07/07 07:40:36;;;;;;;1.65;1.20;;;21.20;97.20;;;;;;5109040;28;20265;-65
2022/07/07 07:43:03;;;;;;;4.10;1.23;;;21.20;97.30;;;;;;5105862;28;20211;-67
2022/07/07 07:45:30;;;;;;;2.00;1.08;;;21.20;96.90;;;;;;5107968;28;20200;-64
2022/07/07 07:47:57;;;;;;;2.58;1.13;;;21.30;96.80;;;;;;5105580;28;20204;-66
2022/07/07 07:50:24;;;;;;;1.23;0.93;;;21.40;96.30;;;;;;5105087;28;20260;-67
2022/07/07 07:52:51;;;;;;;4.72;1.30;;;21.50;95.90;;;;;;5103028;28;20581;-64
2022/07/07 07:55:20;;;;;;;2.85;0.80;;;21.60;95.70;;;;;;5108521;27;20230;-65
2022/07/07 07:57:48;;;;;;;4.57;0.70;;;21.60;95.30;;;;;;5107069;28;20639;-66
2022/07/07 08:00:18;;;;;;;1.77;1.00;;;21.60;94.70;;;;;;5110341;28;20677;-65
2022/07/07 08:02:45;;;;;;;2.33;1.08;;;21.60;94.80;;;;;;5096775;28;20212;-65
2022/07/07 08:05:13;;;;;;;1.55;1.00;;;21.70;94.80;;;;;;5107832;28;20648;-65
2022/07/07 08:07:41;;;;;;;1.15;1.00;;;21.80;94.80;;;;;;5108680;28;20721;-65
2022/07/07 08:10:09;;;;;;;4.28;1.20;;;21.90;94.60;;;;;;5106188;28;20718;-65
2022/07/07 08:12:36;;;;;;;0.95;0.73;;;22.00;94.20;;;;;;5104198;28;20211;-65
2022/07/07 08:15:06;;;;;;;4.93;1.45;;;22.10;94.00;;;;;;5107702;28;20328;-65
2022/07/07 08:17:32;;;;;;;1.83;0.85;;;22.20;93.30;;;;;;5102406;28;20203;-64
2022/07/07 08:19:59;;;;;;;2.00;0.80;;;22.40;93.10;;;;;;5101821;28;20204;-65
2022/07/07 08:22:26;;;;;;;2.67;1.10;;;22.40;92.60;;;;;;5109670;28;20203;-66
2022/07/07 08:24:53;;;;;;;2.95;0.98;;;22.50;91.90;;;;;;5111327;28;20207;-66
2022/07/07 08:27:20;;;;;;;2.35;0.77;;;22.60;91.40;;;;;;5109854;28;20196;-66
2022/07/07 08:29:47;;;;;;;1.70;0.60;;;22.60;91.10;;;;;;5103486;28;20660;-67
2022/07/07 08:32:15;;;;;;;3.08;1.92;;;22.70;91.20;;;;;;5105571;28;20196;-67
2022/07/07 08:34:43;;;;;;;1.40;0.90;;;22.70;90.70;;;;;;5109363;28;20680;-67
2022/07/07 08:37:10;;;;;;;3.80;0.80;;;22.70;90.50;;;;;;5108181;28;20219;-66
2022/07/07 08:39:37;;;;;;;2.58;1.23;;;22.70;90.50;;;;;;5109211;28;20207;-66
2022/07/07 08:42:04;;;;;;;2.55;0.80;;;22.70;90.10;;;;;;5110893;28;20192;-68
2022/07/07 08:44:31;;;;;;;2.17;0.70;;;22.60;90.20;;;;;;5107801;28;20208;-67
2022/07/07 08:46:58;;;;;;;2.10;0.82;;;22.70;90.10;;;;;;5110027;28;20715;-66
2022/07/07 08:49:27;;;;;;;0.90;0.50;;;22.70;90.10;;;;;;5110209;28;20208;-68
2022/07/07 08:51:55;;;;;;;1.13;0.88;;;22.80;89.30;;;;;;5110673;28;20652;-68
2022/07/07 08:54:25;;;;;;;3.53;0.80;;;22.90;88.80;;;;;;5115117;28;20208;-67
2022/07/07 08:56:52;;;;;;;1.58;0.95;;;23.10;87.50;;;;;;5114434;28;20224;-67
2022/07/07 08:59:19;;;;;;;3.33;0.90;;;23.30;87.60;;;;;;5102695;28;20207;-68
2022/07/07 09:01:54;;;;;;;2.35;0.60;;;23.60;85.90;;;;;;5113753;28;20410;-67
2022/07/07 09:04:21;;;;;;;1.38;0.60;;;23.80;83.50;;;;;;5114910;28;20570;-68
2022/07/07 09:06:54;;;;;;;1.95;0.80;;;24.00;82.80;;;;;;5113847;28;20207;-69
2022/07/07 09:09:43;;;;;;;3.17;0.80;;;24.10;81.40;;;;;;5114329;28;20231;-67
2022/07/07 09:12:12;;;;;;;2.63;0.88;;;24.40;81.00;;;;;;5105083;28;20707;-67
2022/07/07 09:14:41;;;;;;;3.58;0.88;;;24.70;80.10;;;;;;5102501;28;20211;-67
2022/07/07 09:17:16;;;;;;;1.73;0.70;;;24.80;79.50;;;;;;5114276;28;20234;-67
2022/07/07 09:19:44;;;;;;;2.70;0.70;;;24.90;79.00;;;;;;5106251;28;20240;-68
2022/07/07 09:22:13;;;;;;;2.85;1.00;;;24.90;77.90;;;;;;5113556;28;20200;-68
2022/07/07 09:24:54;;;;;;;1.52;0.80;;;24.70;76.70;;;;;;5110026;28;20243;-68
2022/07/07 09:27:21;;;;;;;2.53;0.70;;;24.50;76.70;;;;;;5109250;28;20206;-66
2022/07/07 09:29:47;;;;;;;1.00;0.70;;;24.30;76.80;;;;;;5112503;28;20218;-67
2022/07/07 09:32:14;;;;;;;2.42;0.70;;;24.30;76.50;;;;;;5106304;28;20214;-67
2022/07/07 09:34:41;;;;;;;2.13;0.80;;;24.10;75.40;;;;;;5114038;28;20212;-66
2022/07/07 09:39:55;;;;;;;1.67;0.80;;;23.80;76.20;;;;;;5111646;28;20199;-67
2022/07/07 09:42:24;;;;;;;2.85;0.93;;;23.70;76.80;;;;;;5113249;28;20200;-68
2022/07/07 09:44:52;;;;;;;1.83;0.60;;;23.70;76.40;;;;;;5110361;28;20211;-69
2022/07/07 09:47:20;;;;;;;2.28;0.73;;;23.80;76.30;;;;;;5112189;28;20206;-67
2022/07/07 09:50:02;;;;;;;1.90;0.85;;;23.90;76.00;;;;;;5111696;28;20212;-67
2022/07/07 09:52:30;;;;;;;1.35;0.88;;;24.00;76.20;;;;;;5111196;28;20628;-67
2022/07/07 09:54:59;;;;;;;1.35;0.70;;;24.10;75.90;;;;;;5104690;28;20429;-68
2022/07/07 09:57:26;;;;;;;2.45;0.95;;;24.20;75.70;;;;;;5100125;27;20230;-65
2022/07/07 09:59:53;;;;;;;1.60;0.70;;;24.30;74.70;;;;;;5108892;28;20215;-69
2022/07/07 10:02:22;;;;;;;3.90;0.68;;;24.40;74.30;;;;;;5104855;27;20211;-67
2022/07/07 10:04:51;;;;;;;2.97;0.68;;;24.60;73.80;;;;;;5103550;27;20204;-68
2022/07/07 10:07:20;;;;;;;1.88;0.60;;;24.70;71.90;;;;;;5104289;27;20659;-68
2022/07/07 10:09:52;;;;;;;2.50;0.80;;;24.60;70.60;;;;;;5108707;28;20378;-68
2022/07/07 10:12:21;;;;;;;3.47;0.43;;;24.70;71.60;;;;;;5107738;28;20239;-67
2022/07/07 10:14:51;;;;;;;2.15;0.70;;;24.90;72.10;;;;;;5109167;27;20232;-67
2022/07/07 10:17:18;;;;;;;1.17;0.63;;;25.10;70.90;;;;;;5111531;28;21064;-65
2022/07/07 10:19:45;;;;;;;1.88;0.60;;;25.50;69.40;;;;;;5111201;28;20211;-67
2022/07/07 10:22:14;;;;;;;4.95;0.77;;;25.80;66.20;;;;;;5107503;28;20220;-67
2022/07/07 10:24:42;;;;;;;2.53;0.77;;;25.80;64.80;;;;;;5103781;27;20340;-66
2022/07/07 10:27:15;;;;;;;0.82;0.70;;;25.80;64.60;;;;;;5103918;27;20211;-66
2022/07/07 10:29:44;;;;;;;1.38;0.60;;;25.70;63.70;;;;;;5106719;27;20215;-67
2022/07/07 10:32:13;;;;;;;1.23;0.50;;;25.60;63.00;;;;;;5111088;28;20215;-67
2022/07/07 10:34:41;;;;;;;1.05;0.70;;;25.60;62.90;;;;;;5112317;28;20204;-67
2022/07/07 10:37:11;;;;;;;2.70;0.55;;;25.60;63.30;;;;;;5111047;28;20227;-67
2022/07/07 10:39:46;;;;;;;2.95;0.90;;;25.60;63.30;;;;;;5109180;28;20208;-68
2022/07/07 10:42:57;;;;;;;4.63;1.17;;;25.60;63.50;;;;;;5110862;28;20198;-68
2022/07/07 10:45:26;;;;;;;1.20;0.68;;;25.50;63.30;;;;;;5004022;28;20206;-67
2022/07/07 10:47:53;;;;;;;4.57;0.90;;;25.40;63.60;;;;;;5092950;28;20297;-67
2022/07/07 10:50:32;;;;;;;2.00;0.80;;;25.20;63.20;;;;;;5108513;28;20210;-66
2022/07/07 10:52:59;;;;;;;1.25;0.77;;;25.00;63.50;;;;;;5110664;28;20207;-67
2022/07/07 10:55:54;;;;;;;0.98;0.75;;;24.90;63.30;;;;;;5110420;28;20449;-67
2022/07/07 10:58:55;;;;;;;1.67;0.90;;;24.70;63.70;;;;;;5109100;28;20210;-68
2022/07/07 11:01:25;;;;;;;1.25;0.80;;;24.50;64.10;;;;;;5103663;27;20204;-67
2022/07/07 11:03:52;;;;;;;1.60;0.90;;;24.40;65.40;;;;;;5107550;27;20200;-67
2022/07/07 11:06:20;;;;;;;2.05;0.77;;;24.60;65.00;;;;;;5109893;28;20563;-68
2022/07/07 11:08:56;;;;;;;1.08;0.75;;;24.70;64.20;;;;;;5108891;27;20507;-65
2022/07/07 11:11:23;;;;;;;3.00;0.70;;;24.80;62.80;;;;;;5104449;28;20236;-69
2022/07/07 11:14:04;;;;;;;1.42;1.02;;;24.70;61.90;;;;;;5110657;28;20644;-69
2022/07/07 11:16:32;;;;;;;2.00;0.93;;;24.70;62.50;;;;;;5105263;28;20306;-69
2022/07/07 11:19:03;;;;;;;1.67;0.93;;;24.80;62.50;;;;;;5104990;27;20674;-70
2022/07/07 11:21:44;;;;;;;3.08;1.25;;;25.00;63.50;;;;;;5101274;28;20221;-69
2022/07/07 11:24:19;;;;;;;2.28;1.20;;;25.20;63.10;;;;;;5109937;28;20214;-69
2022/07/07 11:26:57;;;;;;;2.22;1.00;;;25.30;62.00;;;;;;5111851;28;20317;-69
2022/07/07 11:29:24;;;;;;;3.85;0.70;;;25.40;61.30;;;;;;5109603;28;20203;-69
2022/07/07 11:32:01;;;;;;;0.85;0.55;;;25.60;60.00;;;;;;5109851;28;20204;-69
2022/07/07 11:34:39;;;;;;;0.88;0.77;;;25.60;59.10;;;;;;5110028;28;20606;-68
2022/07/07 11:37:24;;;;;;;1.23;0.68;;;25.50;58.60;;;;;;5111355;28;20573;-69
2022/07/07 11:39:51;;;;;;;2.85;1.10;;;25.40;59.00;;;;;;5103944;28;20200;-69
2022/07/07 11:42:18;;;;;;;1.65;1.00;;;25.40;58.50;;;;;;5094758;28;20203;-69
2022/07/07 11:44:45;;;;;;;0.77;0.70;;;25.40;58.50;;;;;;5111213;27;20203;-69
2022/07/07 11:47:13;;;;;;;2.65;0.73;;;25.20;58.90;;;;;;5109068;28;20219;-69
2022/07/07 11:49:40;;;;;;;1.60;0.88;;;25.00;59.50;;;;;;5109077;28;20298;-69
2022/07/07 11:52:11;;;;;;;1.88;0.82;;;25.00;60.30;;;;;;5109995;28;20211;-69
2022/07/07 11:54:43;;;;;;;1.85;0.80;;;24.70;60.90;;;;;;5110096;28;20204;-69
2022/07/07 11:57:10;;;;;;;1.17;0.70;;;24.60;61.90;;;;;;5108772;28;20223;-69
2022/07/07 11:59:37;;;;;;;2.15;0.60;;;24.40;62.20;;;;;;5109545;28;20671;-69
2022/07/07 12:02:17;;;;;;;3.47;1.08;;;24.20;62.80;;;;;;5109529;28;20629;-69
2022/07/07 12:04:44;;;;;;;1.10;0.73;;;24.20;63.50;;;;;;5098004;28;20196;-69
2022/07/07 12:07:12;;;;;;;2.30;1.00;;;24.40;64.00;;;;;;5109142;28;20682;-68
2022/07/07 12:09:45;;;;;;;2.08;0.60;;;24.70;63.10;;;;;;5110753;28;20541;-68
2022/07/07 12:12:17;;;;;;;1.85;0.77;;;25.10;62.40;;;;;;5107737;28;21004;-68
2022/07/07 12:14:44;;;;;;;2.53;0.75;;;25.30;61.50;;;;;;5106118;28;20262;-68
2022/07/07 12:17:12;;;;;;;0.88;0.73;;;25.30;61.80;;;;;;5114749;28;20227;-70
2022/07/07 12:19:47;;;;;;;0.60;0.60;;;25.50;61.00;;;;;;5114103;28;20219;-68
2022/07/07 12:22:14;;;;;;;1.77;1.00;;;25.60;60.20;;;;;;5107612;28;20211;-68
2022/07/07 12:24:41;;;;;;;1.80;0.95;;;25.70;61.20;;;;;;5110167;28;20204;-69
2022/07/07 12:27:16;;;;;;;3.58;0.60;;;25.90;59.70;;;;;;5107508;28;20383;-68
2022/07/07 12:29:58;;;;;;;2.45;0.90;;;25.90;59.10;;;;;;5106563;28;20192;-68
2022/07/07 12:32:25;;;;;;;2.15;0.90;;;25.80;58.60;;;;;;5108653;28;20702;-68
2022/07/07 12:34:53;;;;;;;1.55;0.85;;;25.70;58.70;;;;;;5104583;28;20207;-70
2022/07/07 12:37:20;;;;;;;1.80;0.85;;;25.70;59.20;;;;;;5109023;28;20212;-69
2022/07/07 12:39:50;;;;;;;4.13;1.00;;;25.80;59.30;;;;;;5110281;28;20212;-68
2022/07/07 12:42:25;;;;;;;1.00;0.90;;;25.90;59.40;;;;;;5109423;28;20629;-68
2022/07/07 12:44:52;;;;;;;1.27;0.80;;;26.00;58.70;;;;;;5100733;28;20199;-69
2022/07/07 12:47:19;;;;;;;1.45;0.52;;;26.00;57.20;;;;;;5106208;28;20679;-69
2022/07/07 12:49:57;;;;;;;1.00;0.88;;;26.10;58.10;;;;;;5108701;28;20663;-68
2022/07/07 12:52:24;;;;;;;3.53;0.90;;;26.30;57.70;;;;;;5107228;28;20294;-69
2022/07/07 12:54:55;;;;;;;2.60;0.90;;;26.40;57.50;;;;;;5109008;28;20268;-68
2022/07/07 12:57:27;;;;;;;0.88;0.50;;;26.40;57.20;;;;;;5106499;28;20224;-68